sensor_id;sensor_type;location;lat;lon;timestamp;pressure;altitude;pressure_sealevel;temperature;humidity
58534;BME280;44109;52.398;7.024;2023-07-29T00:01:41;100490.69;;;20.07;100.00
58534;BME280;44109;52.398;7.024;2023-07-29T00:04:09;100484.50;;;20.12;100.00
58534;BME280;44109;52.398;7.024;2023-07-29T00:06:37;100478.53;;;20.10;100.00
58534;BME280;44109;52.398;7.024;2023-07-29T00:09:04;100483.63;;;20.15;100.00
58534;BME280;44109;52.398;7.024;2023-07-29T00:11:32;100479.84;;;20.21;100.00
58534;BME280;44109;52.398;7.024;2023-07-29T00:14:01;100476.47;;;20.26;100.00
58534;BME280;44109;52.398;7.024;2023-07-29T00:16:29;100472.88;;;20.26;100.00
58534;BME280;44109;52.398;7.024;2023-07-29T00:18:57;100469.00;;;20.20;100.00
58534;BME280;44109;52.398;7.024;2023-07-29T00:21:24;100471.47;;;20.18;100.00
58534;BME280;44109;52.398;7.024;2023-07-29T00:23:52;100463.56;;;20.13;100.00
58534;BME280;44109;52.398;7.024;2023-07-29T00:26:20;100474.72;;;20.16;100.00
58534;BME280;44109;52.398;7.024;2023-07-29T00:28:47;100474.22;;;20.21;100.00
58534;BME280;44109;52.398;7.024;2023-07-29T00:31:16;100475.22;;;20.27;100.00
58534;BME280;44109;52.398;7.024;2023-07-29T00:33:44;100468.59;;;20.34;100.00
58534;BME280;44109;52.398;7.024;2023-07-29T00:36:11;100470.88;;;20.39;100.00
58534;BME280;44109;52.398;7.024;2023-07-29T00:38:39;100466.75;;;20.44;100.00
58534;BME280;44109;52.398;7.024;2023-07-29T00:41:07;100469.09;;;20.45;100.00
58534;BME280;44109;52.398;7.024;2023-07-29T00:43:39;100474.38;;;20.43;100.00
58534;BME280;44109;52.398;7.024;2023-07-29T00:46:08;100471.56;;;20.43;100.00
58534;BME280;44109;52.398;7.024;2023-07-29T00:48:40;100473.25;;;20.41;100.00
58534;BME280;44109;52.398;7.024;2023-07-29T00:51:08;100469.28;;;20.38;100.00
58534;BME280;44109;52.398;7.024;2023-07-29T00:53:36;100472.81;;;20.42;100.00
58534;BME280;44109;52.398;7.024;2023-07-29T00:56:04;100465.91;;;20.43;100.00
58534;BME280;44109;52.398;7.024;2023-07-29T00:58:32;100464.34;;;20.42;100.00
58534;BME280;44109;52.398;7.024;2023-07-29T01:00:59;100464.44;;;20.39;100.00
58534;BME280;44109;52.398;7.024;2023-07-29T01:03:28;100459.81;;;20.32;100.00
58534;BME280;44109;52.398;7.024;2023-07-29T01:06:07;100453.66;;;20.21;100.00
58534;BME280;44109;52.398;7.024;2023-07-29T01:08:43;100440.69;;;20.11;100.00
58534;BME280;44109;52.398;7.024;2023-07-29T01:11:29;100446.63;;;20.00;100.00
58534;BME280;44109;52.398;7.024;2023-07-29T01:14:13;100454.53;;;19.89;100.00
58534;BME280;44109;52.398;7.024;2023-07-29T01:16:56;100440.44;;;19.76;100.00
58534;BME280;44109;52.398;7.024;2023-07-29T01:19:42;100445.44;;;19.68;100.00
58534;BME280;44109;52.398;7.024;2023-07-29T01:22:16;100445.59;;;19.61;100.00
58534;BME280;44109;52.398;7.024;2023-07-29T01:24:47;100445.06;;;19.50;100.00
58534;BME280;44109;52.398;7.024;2023-07-29T01:27:15;100446.13;;;19.40;100.00
58534;BME280;44109;52.398;7.024;2023-07-29T01:29:42;100441.97;;;19.28;100.00
58534;BME280;44109;52.398;7.024;2023-07-29T01:32:13;100452.59;;;19.20;100.00
58534;BME280;44109;52.398;7.024;2023-07-29T01:34:49;100466.78;;;19.17;100.00
58534;BME280;44109;52.398;7.024;2023-07-29T01:37:26;100452.34;;;19.15;100.00
58534;BME280;44109;52.398;7.024;2023-07-29T01:40:00;100446.00;;;19.11;100.00
58534;BME280;44109;52.398;7.024;2023-07-29T01:42:29;100445.28;;;19.07;100.00
58534;BME280;44109;52.398;7.024;2023-07-29T01:44:58;100446.53;;;19.06;100.00
58534;BME280;44109;52.398;7.024;2023-07-29T01:47:26;100455.13;;;18.98;100.00
58534;BME280;44109;52.398;7.024;2023-07-29T01:49:54;100452.81;;;18.93;100.00
58534;BME280;44109;52.398;7.024;2023-07-29T01:52:22;100448.94;;;18.87;100.00
58534;BME280;44109;52.398;7.024;2023-07-29T01:54:49;100459.47;;;18.83;100.00
58534;BME280;44109;52.398;7.024;2023-07-29T01:57:18;100448.81;;;18.74;100.00
58534;BME280;44109;52.398;7.024;2023-07-29T01:59:46;100462.59;;;18.69;100.00
58534;BME280;44109;52.398;7.024;2023-07-29T02:02:13;100460.13;;;18.71;100.00
58534;BME280;44109;52.398;7.024;2023-07-29T02:04:41;100458.94;;;18.72;100.00
58534;BME280;44109;52.398;7.024;2023-07-29T02:07:09;100445.22;;;18.74;100.00
58534;BME280;44109;52.398;7.024;2023-07-29T02:09:36;100427.59;;;18.73;100.00
58534;BME280;44109;52.398;7.024;2023-07-29T02:12:04;100430.47;;;18.70;100.00
58534;BME280;44109;52.398;7.024;2023-07-29T02:14:34;100427.66;;;18.70;100.00
58534;BME280;44109;52.398;7.024;2023-07-29T02:17:02;100427.28;;;18.68;100.00
58534;BME280;44109;52.398;7.024;2023-07-29T02:19:30;100426.19;;;18.62;100.00
58534;BME280;44109;52.398;7.024;2023-07-29T02:21:58;100424.63;;;18.61;100.00
58534;BME280;44109;52.398;7.024;2023-07-29T02:24:25;100424.69;;;18.57;100.00
58534;BME280;44109;52.398;7.024;2023-07-29T02:26:53;100413.03;;;18.59;100.00
58534;BME280;44109;52.398;7.024;2023-07-29T02:29:20;100407.75;;;18.61;100.00
58534;BME280;44109;52.398;7.024;2023-07-29T02:31:49;100414.25;;;18.58;100.00
58534;BME280;44109;52.398;7.024;2023-07-29T02:34:17;100414.25;;;18.58;100.00
58534;BME280;44109;52.398;7.024;2023-07-29T02:36:45;100422.31;;;18.56;100.00
58534;BME280;44109;52.398;7.024;2023-07-29T02:39:12;100424.34;;;18.55;100.00
58534;BME280;44109;52.398;7.024;2023-07-29T02:41:40;100420.38;;;18.52;100.00
58534;BME280;44109;52.398;7.024;2023-07-29T02:44:07;100423.19;;;18.52;100.00
58534;BME280;44109;52.398;7.024;2023-07-29T02:46:35;100404.75;;;18.51;100.00
58534;BME280;44109;52.398;7.024;2023-07-29T02:49:04;100405.59;;;18.48;100.00
58534;BME280;44109;52.398;7.024;2023-07-29T02:51:32;100401.94;;;18.51;100.00
58534;BME280;44109;52.398;7.024;2023-07-29T02:54:00;100413.97;;;18.52;100.00
58534;BME280;44109;52.398;7.024;2023-07-29T02:56:27;100417.94;;;18.55;100.00
58534;BME280;44109;52.398;7.024;2023-07-29T02:58:56;100421.09;;;18.57;100.00
58534;BME280;44109;52.398;7.024;2023-07-29T03:01:24;100424.19;;;18.62;100.00
58534;BME280;44109;52.398;7.024;2023-07-29T03:03:52;100430.09;;;18.68;100.00
58534;BME280;44109;52.398;7.024;2023-07-29T03:06:21;100428.38;;;18.74;100.00
58534;BME280;44109;52.398;7.024;2023-07-29T03:08:49;100423.81;;;18.80;100.00
58534;BME280;44109;52.398;7.024;2023-07-29T03:11:16;100427.34;;;18.84;100.00
58534;BME280;44109;52.398;7.024;2023-07-29T03:13:44;100428.13;;;18.85;100.00
58534;BME280;44109;52.398;7.024;2023-07-29T03:16:13;100414.38;;;18.90;100.00
58534;BME280;44109;52.398;7.024;2023-07-29T03:18:42;100413.47;;;18.93;100.00
58534;BME280;44109;52.398;7.024;2023-07-29T03:21:11;100423.78;;;19.00;100.00
58534;BME280;44109;52.398;7.024;2023-07-29T03:23:40;100422.47;;;19.05;100.00
58534;BME280;44109;52.398;7.024;2023-07-29T03:26:08;100423.59;;;19.07;100.00
58534;BME280;44109;52.398;7.024;2023-07-29T03:28:39;100426.31;;;19.11;100.00
58534;BME280;44109;52.398;7.024;2023-07-29T03:31:09;100430.22;;;19.17;100.00
58534;BME280;44109;52.398;7.024;2023-07-29T03:33:37;100426.50;;;19.20;100.00
58534;BME280;44109;52.398;7.024;2023-07-29T03:36:05;100423.63;;;19.23;100.00
58534;BME280;44109;52.398;7.024;2023-07-29T03:38:33;100426.34;;;19.27;100.00
58534;BME280;44109;52.398;7.024;2023-07-29T03:41:02;100426.25;;;19.31;100.00
58534;BME280;44109;52.398;7.024;2023-07-29T03:43:30;100430.22;;;19.33;100.00
58534;BME280;44109;52.398;7.024;2023-07-29T03:45:57;100424.06;;;19.38;100.00
58534;BME280;44109;52.398;7.024;2023-07-29T03:48:25;100430.38;;;19.42;100.00
58534;BME280;44109;52.398;7.024;2023-07-29T03:50:53;100425.47;;;19.46;100.00
58534;BME280;44109;52.398;7.024;2023-07-29T03:53:21;100414.56;;;19.48;100.00
58534;BME280;44109;52.398;7.024;2023-07-29T03:55:49;100419.31;;;19.51;100.00
58534;BME280;44109;52.398;7.024;2023-07-29T03:58:18;100416.84;;;19.54;100.00
58534;BME280;44109;52.398;7.024;2023-07-29T04:00:46;100404.81;;;19.53;100.00
58534;BME280;44109;52.398;7.024;2023-07-29T04:03:13;100404.19;;;19.45;100.00
58534;BME280;44109;52.398;7.024;2023-07-29T04:05:41;100392.31;;;19.38;100.00
58534;BME280;44109;52.398;7.024;2023-07-29T04:08:09;100395.75;;;19.45;100.00
58534;BME280;44109;52.398;7.024;2023-07-29T04:10:37;100399.44;;;19.42;100.00
58534;BME280;44109;52.398;7.024;2023-07-29T04:13:04;100409.13;;;19.41;100.00
58534;BME280;44109;52.398;7.024;2023-07-29T04:15:33;100406.75;;;19.40;100.00
58534;BME280;44109;52.398;7.024;2023-07-29T04:18:01;100401.91;;;19.40;100.00
58534;BME280;44109;52.398;7.024;2023-07-29T04:20:29;100404.72;;;19.40;100.00
58534;BME280;44109;52.398;7.024;2023-07-29T04:22:56;100401.47;;;19.42;100.00
58534;BME280;44109;52.398;7.024;2023-07-29T04:25:24;100392.16;;;19.45;100.00
58534;BME280;44109;52.398;7.024;2023-07-29T04:27:51;100390.47;;;19.47;100.00
58534;BME280;44109;52.398;7.024;2023-07-29T04:30:19;100391.53;;;19.54;100.00
58534;BME280;44109;52.398;7.024;2023-07-29T04:32:48;100393.81;;;19.59;100.00
58534;BME280;44109;52.398;7.024;2023-07-29T04:35:16;100380.47;;;19.63;100.00
58534;BME280;44109;52.398;7.024;2023-07-29T04:37:43;100387.22;;;19.65;100.00
58534;BME280;44109;52.398;7.024;2023-07-29T04:40:14;100381.50;;;19.69;100.00
58534;BME280;44109;52.398;7.024;2023-07-29T04:42:42;100381.84;;;19.71;100.00
58534;BME280;44109;52.398;7.024;2023-07-29T04:45:10;100391.66;;;19.79;100.00
58534;BME280;44109;52.398;7.024;2023-07-29T04:47:37;100393.63;;;19.82;100.00
58534;BME280;44109;52.398;7.024;2023-07-29T04:50:08;100390.25;;;19.87;100.00
58534;BME280;44109;52.398;7.024;2023-07-29T04:52:36;100386.56;;;19.90;100.00
58534;BME280;44109;52.398;7.024;2023-07-29T04:55:04;100386.88;;;19.92;100.00
58534;BME280;44109;52.398;7.024;2023-07-29T04:57:32;100383.63;;;19.94;100.00
58534;BME280;44109;52.398;7.024;2023-07-29T04:59:59;100393.56;;;19.98;100.00
58534;BME280;44109;52.398;7.024;2023-07-29T05:02:27;100399.44;;;20.04;100.00
58534;BME280;44109;52.398;7.024;2023-07-29T05:04:54;100395.28;;;20.09;100.00
58534;BME280;44109;52.398;7.024;2023-07-29T05:07:23;100404.06;;;20.11;100.00
58534;BME280;44109;52.398;7.024;2023-07-29T05:09:51;100401.06;;;20.18;100.00
58534;BME280;44109;52.398;7.024;2023-07-29T05:12:19;100408.97;;;20.23;100.00
58534;BME280;44109;52.398;7.024;2023-07-29T05:14:46;100403.66;;;20.25;100.00
58534;BME280;44109;52.398;7.024;2023-07-29T05:17:14;100413.25;;;20.27;100.00
58534;BME280;44109;52.398;7.024;2023-07-29T05:19:41;100396.25;;;20.31;100.00
58534;BME280;44109;52.398;7.024;2023-07-29T05:22:09;100393.78;;;20.33;100.00
58534;BME280;44109;52.398;7.024;2023-07-29T05:24:38;100391.97;;;20.39;100.00
58534;BME280;44109;52.398;7.024;2023-07-29T05:27:06;100388.28;;;20.42;100.00
58534;BME280;44109;52.398;7.024;2023-07-29T05:29:34;100382.91;;;20.48;100.00
58534;BME280;44109;52.398;7.024;2023-07-29T05:32:02;100382.91;;;20.48;100.00
58534;BME280;44109;52.398;7.024;2023-07-29T05:34:30;100385.41;;;20.59;100.00
58534;BME280;44109;52.398;7.024;2023-07-29T05:36:58;100391.28;;;20.64;100.00
58534;BME280;44109;52.398;7.024;2023-07-29T05:39:25;100394.31;;;20.70;100.00
58534;BME280;44109;52.398;7.024;2023-07-29T05:41:54;100397.25;;;20.54;100.00
58534;BME280;44109;52.398;7.024;2023-07-29T05:44:22;100392.50;;;20.50;100.00
58534;BME280;44109;52.398;7.024;2023-07-29T05:47:00;100389.41;;;20.45;100.00
58534;BME280;44109;52.398;7.024;2023-07-29T05:49:27;100386.88;;;20.50;100.00
58534;BME280;44109;52.398;7.024;2023-07-29T05:51:55;100392.94;;;20.62;100.00
58534;BME280;44109;52.398;7.024;2023-07-29T05:54:23;100402.31;;;20.59;100.00
58534;BME280;44109;52.398;7.024;2023-07-29T05:56:50;100398.19;;;20.47;100.00
58534;BME280;44109;52.398;7.024;2023-07-29T05:59:19;100408.78;;;20.43;100.00
58534;BME280;44109;52.398;7.024;2023-07-29T06:01:47;100413.31;;;20.40;100.00
58534;BME280;44109;52.398;7.024;2023-07-29T06:04:14;100415.16;;;20.60;100.00
58534;BME280;44109;52.398;7.024;2023-07-29T06:06:42;100423.31;;;20.41;100.00
58534;BME280;44109;52.398;7.024;2023-07-29T06:09:09;100431.28;;;20.30;100.00
58534;BME280;44109;52.398;7.024;2023-07-29T06:11:37;100439.94;;;20.23;100.00
58534;BME280;44109;52.398;7.024;2023-07-29T06:14:05;100436.59;;;20.28;100.00
58534;BME280;44109;52.398;7.024;2023-07-29T06:16:33;100425.31;;;20.28;100.00
58534;BME280;44109;52.398;7.024;2023-07-29T06:19:01;100432.53;;;20.29;100.00
58534;BME280;44109;52.398;7.024;2023-07-29T06:21:29;100436.00;;;20.49;100.00
58534;BME280;44109;52.398;7.024;2023-07-29T06:23:56;100427.50;;;20.37;100.00
58534;BME280;44109;52.398;7.024;2023-07-29T06:26:24;100433.03;;;20.40;100.00
58534;BME280;44109;52.398;7.024;2023-07-29T06:28:51;100432.28;;;20.52;100.00
58534;BME280;44109;52.398;7.024;2023-07-29T06:31:20;100421.84;;;20.37;100.00
58534;BME280;44109;52.398;7.024;2023-07-29T06:33:49;100427.81;;;20.26;100.00
58534;BME280;44109;52.398;7.024;2023-07-29T06:36:17;100422.13;;;20.13;100.00
58534;BME280;44109;52.398;7.024;2023-07-29T06:38:44;100423.25;;;20.16;100.00
58534;BME280;44109;52.398;7.024;2023-07-29T06:41:12;100425.59;;;20.46;100.00
58534;BME280;44109;52.398;7.024;2023-07-29T06:43:40;100434.69;;;20.67;100.00
58534;BME280;44109;52.398;7.024;2023-07-29T06:46:07;100435.59;;;20.64;100.00
58534;BME280;44109;52.398;7.024;2023-07-29T06:48:35;100433.47;;;20.81;100.00
58534;BME280;44109;52.398;7.024;2023-07-29T06:51:04;100446.63;;;20.71;100.00
58534;BME280;44109;52.398;7.024;2023-07-29T06:53:32;100441.25;;;21.02;100.00
58534;BME280;44109;52.398;7.024;2023-07-29T06:55:59;100439.31;;;20.73;100.00
58534;BME280;44109;52.398;7.024;2023-07-29T06:58:27;100435.59;;;20.64;100.00
58534;BME280;44109;52.398;7.024;2023-07-29T07:00:55;100444.09;;;20.47;100.00
58534;BME280;44109;52.398;7.024;2023-07-29T07:03:22;100453.75;;;20.46;100.00
58534;BME280;44109;52.398;7.024;2023-07-29T07:05:50;100449.13;;;20.40;100.00
58534;BME280;44109;52.398;7.024;2023-07-29T07:08:19;100458.63;;;20.46;100.00
58534;BME280;44109;52.398;7.024;2023-07-29T07:10:47;100459.13;;;20.28;100.00
58534;BME280;44109;52.398;7.024;2023-07-29T07:13:14;100455.06;;;20.29;100.00
58534;BME280;44109;52.398;7.024;2023-07-29T07:15:42;100458.53;;;20.20;100.00
58534;BME280;44109;52.398;7.024;2023-07-29T07:18:11;100461.53;;;20.42;100.00
58534;BME280;44109;52.398;7.024;2023-07-29T07:20:38;100459.94;;;20.41;100.00
58534;BME280;44109;52.398;7.024;2023-07-29T07:23:06;100461.78;;;20.19;100.00
58534;BME280;44109;52.398;7.024;2023-07-29T07:25:38;100460.91;;;20.22;100.00
58534;BME280;44109;52.398;7.024;2023-07-29T07:28:06;100460.13;;;20.21;100.00
58534;BME280;44109;52.398;7.024;2023-07-29T07:30:33;100457.56;;;20.11;100.00
58534;BME280;44109;52.398;7.024;2023-07-29T07:33:01;100454.41;;;20.38;100.00
58534;BME280;44109;52.398;7.024;2023-07-29T07:35:29;100456.16;;;20.48;100.00
58534;BME280;44109;52.398;7.024;2023-07-29T07:37:56;100461.28;;;20.66;100.00
58534;BME280;44109;52.398;7.024;2023-07-29T07:40:24;100459.16;;;20.83;100.00
58534;BME280;44109;52.398;7.024;2023-07-29T07:42:53;100453.00;;;21.00;100.00
58534;BME280;44109;52.398;7.024;2023-07-29T07:45:21;100459.78;;;21.41;100.00
58534;BME280;44109;52.398;7.024;2023-07-29T07:47:49;100456.34;;;21.72;100.00
58534;BME280;44109;52.398;7.024;2023-07-29T07:50:18;100452.41;;;21.57;100.00
58534;BME280;44109;52.398;7.024;2023-07-29T07:52:46;100446.00;;;21.43;100.00
58534;BME280;44109;52.398;7.024;2023-07-29T07:55:14;100451.53;;;21.34;100.00
58534;BME280;44109;52.398;7.024;2023-07-29T07:57:41;100451.06;;;21.23;100.00
58534;BME280;44109;52.398;7.024;2023-07-29T08:00:11;100453.00;;;21.51;100.00
58534;BME280;44109;52.398;7.024;2023-07-29T08:02:43;100420.25;;;21.16;100.00
58534;BME280;44109;52.398;7.024;2023-07-29T08:05:11;100440.47;;;21.27;100.00
58534;BME280;44109;52.398;7.024;2023-07-29T08:07:39;100448.50;;;21.41;100.00
58534;BME280;44109;52.398;7.024;2023-07-29T08:10:07;100445.97;;;22.03;100.00
58534;BME280;44109;52.398;7.024;2023-07-29T08:12:35;100441.06;;;22.61;100.00
58534;BME280;44109;52.398;7.024;2023-07-29T08:15:03;100429.19;;;22.97;100.00
58534;BME280;44109;52.398;7.024;2023-07-29T08:17:33;100429.66;;;23.36;100.00
58534;BME280;44109;52.398;7.024;2023-07-29T08:20:01;100429.19;;;23.46;100.00
58534;BME280;44109;52.398;7.024;2023-07-29T08:22:29;100430.38;;;23.67;100.00
58534;BME280;44109;52.398;7.024;2023-07-29T08:24:56;100429.56;;;23.58;100.00
58534;BME280;44109;52.398;7.024;2023-07-29T08:27:24;100428.50;;;23.92;100.00
58534;BME280;44109;52.398;7.024;2023-07-29T08:29:53;100431.81;;;24.45;100.00
58534;BME280;44109;52.398;7.024;2023-07-29T08:32:21;100433.41;;;24.37;100.00
58534;BME280;44109;52.398;7.024;2023-07-29T08:34:50;100437.78;;;24.20;100.00
58534;BME280;44109;52.398;7.024;2023-07-29T08:37:17;100442.66;;;23.92;100.00
58534;BME280;44109;52.398;7.024;2023-07-29T08:39:45;100446.63;;;24.13;100.00
58534;BME280;44109;52.398;7.024;2023-07-29T08:42:13;100449.91;;;23.84;100.00
58534;BME280;44109;52.398;7.024;2023-07-29T08:44:45;100440.84;;;23.48;100.00
58534;BME280;44109;52.398;7.024;2023-07-29T08:47:15;100448.97;;;23.28;100.00
58534;BME280;44109;52.398;7.024;2023-07-29T08:49:44;100436.94;;;23.06;100.00
58534;BME280;44109;52.398;7.024;2023-07-29T08:52:14;100442.31;;;23.13;100.00
58534;BME280;44109;52.398;7.024;2023-07-29T08:54:42;100445.44;;;22.84;100.00
58534;BME280;44109;52.398;7.024;2023-07-29T08:57:10;100443.13;;;23.22;100.00
58534;BME280;44109;52.398;7.024;2023-07-29T08:59:39;100437.78;;;23.24;100.00
58534;BME280;44109;52.398;7.024;2023-07-29T09:02:07;100448.09;;;23.09;100.00
58534;BME280;44109;52.398;7.024;2023-07-29T09:04:35;100441.69;;;22.87;100.00
58534;BME280;44109;52.398;7.024;2023-07-29T09:07:03;100442.44;;;23.09;100.00
58534;BME280;44109;52.398;7.024;2023-07-29T09:09:34;100448.06;;;23.00;100.00
58534;BME280;44109;52.398;7.024;2023-07-29T09:12:02;100444.47;;;23.49;100.00
58534;BME280;44109;52.398;7.024;2023-07-29T09:14:30;100445.81;;;23.26;100.00
58534;BME280;44109;52.398;7.024;2023-07-29T09:16:58;100443.28;;;23.19;100.00
58534;BME280;44109;52.398;7.024;2023-07-29T09:19:27;100449.47;;;23.36;100.00
58534;BME280;44109;52.398;7.024;2023-07-29T09:21:54;100428.94;;;23.63;100.00
58534;BME280;44109;52.398;7.024;2023-07-29T09:24:22;100430.84;;;23.75;100.00
58534;BME280;44109;52.398;7.024;2023-07-29T09:26:51;100430.22;;;23.71;100.00
58534;BME280;44109;52.398;7.024;2023-07-29T09:29:22;100426.00;;;23.94;100.00
58534;BME280;44109;52.398;7.024;2023-07-29T09:31:51;100433.25;;;24.13;100.00
58534;BME280;44109;52.398;7.024;2023-07-29T09:34:18;100427.72;;;23.91;100.00
58534;BME280;44109;52.398;7.024;2023-07-29T09:36:46;100427.56;;;23.76;100.00
58534;BME280;44109;52.398;7.024;2023-07-29T09:39:13;100427.72;;;23.91;100.00
58534;BME280;44109;52.398;7.024;2023-07-29T09:41:47;100434.03;;;24.14;100.00
58534;BME280;44109;52.398;7.024;2023-07-29T09:44:16;100434.94;;;24.29;100.00
58534;BME280;44109;52.398;7.024;2023-07-29T09:46:45;100438.53;;;23.65;100.00
58534;BME280;44109;52.398;7.024;2023-07-29T09:49:13;100438.88;;;23.67;100.00
58534;BME280;44109;52.398;7.024;2023-07-29T09:51:41;100433.94;;;23.49;100.00
58534;BME280;44109;52.398;7.024;2023-07-29T09:54:10;100434.59;;;23.63;100.00
58534;BME280;44109;52.398;7.024;2023-07-29T09:56:41;100440.81;;;23.30;100.00
58534;BME280;44109;52.398;7.024;2023-07-29T09:59:10;100444.91;;;23.38;100.00
58534;BME280;44109;52.398;7.024;2023-07-29T10:01:40;100451.63;;;23.22;100.00
58534;BME280;44109;52.398;7.024;2023-07-29T10:04:09;100450.53;;;23.29;100.00
58534;BME280;44109;52.398;7.024;2023-07-29T10:06:38;100458.03;;;23.14;100.00
58534;BME280;44109;52.398;7.024;2023-07-29T10:09:06;100453.88;;;22.96;100.00
58534;BME280;44109;52.398;7.024;2023-07-29T10:11:35;100453.59;;;23.03;100.00
58534;BME280;44109;52.398;7.024;2023-07-29T10:14:04;100451.13;;;23.15;100.00
58534;BME280;44109;52.398;7.024;2023-07-29T10:16:32;100450.16;;;23.09;100.00
58534;BME280;44109;52.398;7.024;2023-07-29T10:19:04;100450.03;;;23.12;100.00
58534;BME280;44109;52.398;7.024;2023-07-29T10:21:36;100455.25;;;22.92;100.00
58534;BME280;44109;52.398;7.024;2023-07-29T10:24:09;100459.44;;;22.87;100.00
58534;BME280;44109;52.398;7.024;2023-07-29T10:26:43;100459.34;;;22.91;100.00
58534;BME280;44109;52.398;7.024;2023-07-29T10:29:14;100444.34;;;22.81;100.00
58534;BME280;44109;52.398;7.024;2023-07-29T10:31:46;100451.44;;;23.17;100.00
58534;BME280;44109;52.398;7.024;2023-07-29T10:34:16;100454.91;;;23.21;100.00
58534;BME280;44109;52.398;7.024;2023-07-29T10:36:47;100461.88;;;23.38;100.00
58534;BME280;44109;52.398;7.024;2023-07-29T10:39:16;100458.03;;;23.63;100.00
58534;BME280;44109;52.398;7.024;2023-07-29T10:41:57;100457.91;;;23.67;100.00
58534;BME280;44109;52.398;7.024;2023-07-29T10:44:48;100459.50;;;23.68;100.00
58534;BME280;44109;52.398;7.024;2023-07-29T10:47:18;100459.38;;;23.90;100.00
58534;BME280;44109;52.398;7.024;2023-07-29T10:49:51;100448.72;;;23.53;100.00
58534;BME280;44109;52.398;7.024;2023-07-29T10:52:39;100449.00;;;23.46;100.00
58534;BME280;44109;52.398;7.024;2023-07-29T10:55:27;100451.78;;;23.68;100.00
58534;BME280;44109;52.398;7.024;2023-07-29T10:58:06;100446.53;;;23.58;100.00
58534;BME280;44109;52.398;7.024;2023-07-29T11:00:35;100452.22;;;23.58;100.00
58534;BME280;44109;52.398;7.024;2023-07-29T11:03:06;100445.47;;;23.73;100.00
58534;BME280;44109;52.398;7.024;2023-07-29T11:05:49;100459.53;;;24.04;100.00
58534;BME280;44109;52.398;7.024;2023-07-29T11:08:20;100454.94;;;23.98;100.00
58534;BME280;44109;52.398;7.024;2023-07-29T11:11:00;100451.97;;;23.92;100.00
58534;BME280;44109;52.398;7.024;2023-07-29T11:13:31;100456.97;;;23.70;100.00
58534;BME280;44109;52.398;7.024;2023-07-29T11:16:00;100451.19;;;24.10;100.00
58534;BME280;44109;52.398;7.024;2023-07-29T11:18:31;100453.19;;;23.73;100.00
58534;BME280;44109;52.398;7.024;2023-07-29T11:21:02;100447.13;;;23.52;100.00
58534;BME280;44109;52.398;7.024;2023-07-29T11:23:31;100450.59;;;23.47;100.00
58534;BME280;44109;52.398;7.024;2023-07-29T11:26:01;100448.41;;;23.61;100.00
58534;BME280;44109;52.398;7.024;2023-07-29T11:28:30;100449.53;;;23.63;100.00
58534;BME280;44109;52.398;7.024;2023-07-29T11:31:04;100449.97;;;23.62;100.00
58534;BME280;44109;52.398;7.024;2023-07-29T11:33:32;100452.94;;;23.40;100.00
58534;BME280;44109;52.398;7.024;2023-07-29T11:36:01;100455.66;;;23.62;100.00
58534;BME280;44109;52.398;7.024;2023-07-29T11:38:29;100451.03;;;23.95;100.00
58534;BME280;44109;52.398;7.024;2023-07-29T11:41:03;100443.47;;;24.01;100.00
58534;BME280;44109;52.398;7.024;2023-07-29T11:43:34;100446.00;;;24.09;100.00
58534;BME280;44109;52.398;7.024;2023-07-29T11:46:02;100442.19;;;23.84;100.00
58534;BME280;44109;52.398;7.024;2023-07-29T11:48:32;100437.13;;;23.70;100.00
58534;BME280;44109;52.398;7.024;2023-07-29T11:51:02;100437.56;;;23.59;100.00
58534;BME280;44109;52.398;7.024;2023-07-29T11:53:30;100445.03;;;23.84;100.00
58534;BME280;44109;52.398;7.024;2023-07-29T11:55:58;100438.28;;;24.00;100.00
58534;BME280;44109;52.398;7.024;2023-07-29T11:58:26;100444.72;;;23.91;100.00
58534;BME280;44109;52.398;7.024;2023-07-29T12:00:54;100442.81;;;24.16;100.00
58534;BME280;44109;52.398;7.024;2023-07-29T12:03:23;100445.50;;;24.01;100.00
58534;BME280;44109;52.398;7.024;2023-07-29T12:05:51;100440.78;;;23.98;100.00
58534;BME280;44109;52.398;7.024;2023-07-29T12:08:20;100446.59;;;23.67;100.00
58534;BME280;44109;52.398;7.024;2023-07-29T12:10:48;100449.63;;;23.41;100.00
58534;BME280;44109;52.398;7.024;2023-07-29T12:13:16;100445.72;;;23.48;100.00
58534;BME280;44109;52.398;7.024;2023-07-29T12:15:43;100443.91;;;23.23;100.00
58534;BME280;44109;52.398;7.024;2023-07-29T12:18:12;100457.34;;;23.00;100.00
58534;BME280;44109;52.398;7.024;2023-07-29T12:20:39;100449.19;;;23.52;100.00
58534;BME280;44109;52.398;7.024;2023-07-29T12:23:08;100449.44;;;23.67;100.00
58534;BME280;44109;52.398;7.024;2023-07-29T12:25:37;100448.50;;;23.88;100.00
58534;BME280;44109;52.398;7.024;2023-07-29T12:28:05;100444.88;;;24.24;100.00
58534;BME280;44109;52.398;7.024;2023-07-29T12:30:34;100439.00;;;24.74;100.00
58534;BME280;44109;52.398;7.024;2023-07-29T12:33:01;100447.16;;;24.90;100.00
58534;BME280;44109;52.398;7.024;2023-07-29T12:35:36;100446.28;;;24.57;100.00
58534;BME280;44109;52.398;7.024;2023-07-29T12:38:05;100448.19;;;24.41;100.00
58534;BME280;44109;52.398;7.024;2023-07-29T12:40:38;100436.19;;;24.55;100.00
58534;BME280;44109;52.398;7.024;2023-07-29T12:43:08;100449.03;;;24.84;100.00
58534;BME280;44109;52.398;7.024;2023-07-29T12:45:36;100438.69;;;24.72;100.00
58534;BME280;44109;52.398;7.024;2023-07-29T12:48:06;100441.09;;;24.46;100.00
58534;BME280;44109;52.398;7.024;2023-07-29T12:50:33;100440.88;;;24.77;100.00